Time;durP1;ratioP1;P1;durP2;ratioP2;P2;SDS_P1;SDS_P2;PMS_P1;PMS_P2;Temp;Humidity;BMP_temperature;BMP_pressure;BME280_temperature;BME280_humidity;BME280_pressure;Samples;Min_cycle;Max_cycle;Signal;HPM_P1;HPM_P2
2021/08/14 00:01:06;;;;;;;6.25;5.63;;;;;;;20.60;63.29;97877.19;4976565;28;20130;-77
2021/08/14 00:03:32;;;;;;;8.95;5.63;;;;;;;20.49;63.46;97871.25;4975956;28;20026;-77
2021/08/14 00:05:57;;;;;;;6.25;5.65;;;;;;;20.48;63.89;97868.94;5003792;28;20038;-77
2021/08/14 00:08:23;;;;;;;8.05;5.22;;;;;;;20.46;63.61;97873.72;4979190;28;20068;-77
2021/08/14 00:10:48;;;;;;;6.93;5.82;;;;;;;20.38;63.68;97865.38;4979793;28;20033;-77
2021/08/14 00:13:14;;;;;;;7.68;6.15;;;;;;;20.31;64.15;97861.56;4980325;28;20041;-77
2021/08/14 00:15:39;;;;;;;6.15;5.25;;;;;;;20.21;64.06;97860.63;4996829;28;20064;-77
2021/08/14 00:18:05;;;;;;;7.22;5.13;;;;;;;20.21;63.85;97859.84;4976436;28;20115;-77
2021/08/14 00:20:30;;;;;;;5.57;4.65;;;;;;;20.23;63.92;97865.63;4986353;28;20401;-77
2021/08/14 00:22:58;;;;;;;6.63;5.55;;;;;;;20.19;63.83;97860.16;4976819;28;20048;-77
2021/08/14 00:25:23;;;;;;;7.55;5.43;;;;;;;20.18;64.39;97855.16;4976912;28;20054;-77
2021/08/14 00:27:48;;;;;;;6.57;5.80;;;;;;;20.12;63.99;97858.97;4976812;28;20033;-76
2021/08/14 00:30:14;;;;;;;7.47;5.40;;;;;;;20.07;64.30;97856.41;5002889;28;20057;-77
2021/08/14 00:32:39;;;;;;;8.07;5.53;;;;;;;20.00;64.29;97849.63;4979225;28;20030;-77
2021/08/14 00:35:05;;;;;;;7.85;5.30;;;;;;;19.94;64.46;97850.75;4973669;28;20420;-77
2021/08/14 00:37:30;;;;;;;6.20;4.95;;;;;;;19.96;64.33;97846.00;4972554;28;20484;-77
2021/08/14 00:39:55;;;;;;;8.40;5.32;;;;;;;19.96;64.27;97848.63;4962277;28;20030;-78
2021/08/14 00:42:21;;;;;;;7.72;6.03;;;;;;;20.01;64.09;97855.69;4992560;28;20554;-77
2021/08/14 00:44:46;;;;;;;6.55;5.40;;;;;;;20.09;64.03;97856.88;4975862;28;20037;-77
2021/08/14 00:47:12;;;;;;;8.85;6.13;;;;;;;19.99;64.06;97847.25;4975735;28;20125;-77
2021/08/14 00:49:37;;;;;;;7.13;5.47;;;;;;;19.89;64.99;97847.41;4982891;28;20103;-77
2021/08/14 00:52:03;;;;;;;7.03;5.65;;;;;;;19.84;65.06;97848.28;4977560;28;20125;-77
2021/08/14 00:54:28;;;;;;;6.50;5.45;;;;;;;19.83;65.18;97854.66;4960207;28;20038;-77
2021/08/14 00:56:56;;;;;;;7.60;6.38;;;;;;;19.75;64.84;97853.44;4981974;28;20038;-77
2021/08/14 00:59:21;;;;;;;7.43;5.78;;;;;;;19.70;65.37;97839.50;4974471;28;20057;-77
2021/08/14 01:01:46;;;;;;;7.82;5.47;;;;;;;19.65;65.35;97841.16;4963484;28;20022;-76
2021/08/14 01:04:15;;;;;;;8.00;5.45;;;;;;;19.67;65.12;97846.13;5007788;23;20041;-76
2021/08/14 01:06:41;;;;;;;17.35;7.35;;;;;;;19.68;65.20;97842.41;4999267;28;20033;-76
2021/08/14 01:09:06;;;;;;;7.15;5.05;;;;;;;19.61;65.06;97840.13;4994334;28;20032;-76
2021/08/14 01:11:31;;;;;;;8.57;6.38;;;;;;;19.58;65.34;97837.28;5024663;28;20034;-76
2021/08/14 01:13:57;;;;;;;6.57;5.43;;;;;;;19.57;65.93;97836.50;4995497;28;20503;-76
2021/08/14 01:16:25;;;;;;;6.55;4.82;;;;;;;19.50;65.98;97841.38;4977766;28;20042;-76
2021/08/14 01:18:50;;;;;;;6.50;5.55;;;;;;;19.57;66.18;97841.78;4995373;28;20034;-76
2021/08/14 01:21:20;;;;;;;7.15;5.50;;;;;;;19.44;65.90;97834.56;4978975;28;20052;-76
2021/08/14 01:23:47;;;;;;;7.30;5.43;;;;;;;19.54;65.63;97839.72;4998001;28;20128;-76
2021/08/14 01:26:13;;;;;;;5.82;5.13;;;;;;;19.55;65.68;97837.84;5011369;28;20036;-77
2021/08/14 01:28:39;;;;;;;7.15;5.50;;;;;;;19.52;65.68;97836.56;4995843;28;20053;-76
2021/08/14 01:31:07;;;;;;;6.43;5.35;;;;;;;19.44;65.49;97831.94;5000651;28;20026;-76
2021/08/14 01:33:34;;;;;;;7.70;5.88;;;;;;;19.44;65.91;97831.94;4994527;28;20018;-76
2021/08/14 01:36:07;;;;;;;6.32;4.53;;;;;;;19.44;65.68;97830.06;5013893;28;20041;-76
2021/08/14 01:38:33;;;;;;;6.32;4.85;;;;;;;19.43;65.84;97833.00;5003417;28;20038;-76
2021/08/14 01:40:59;;;;;;;8.57;5.43;;;;;;;19.46;65.60;97829.78;5011104;28;20025;-76
2021/08/14 01:43:24;;;;;;;5.90;5.30;;;;;;;19.48;65.08;97827.63;4971387;28;20088;-76
2021/08/14 01:45:50;;;;;;;6.13;5.10;;;;;;;19.42;65.41;97829.56;5012112;28;20029;-76
2021/08/14 01:48:16;;;;;;;7.70;5.30;;;;;;;19.38;65.64;97822.50;4978621;28;20040;-76
2021/08/14 01:50:42;;;;;;;5.20;4.57;;;;;;;19.41;65.39;97825.34;4986712;28;20121;-76
2021/08/14 01:53:07;;;;;;;8.40;5.18;;;;;;;19.40;65.04;97823.03;5010383;28;20132;-76
2021/08/14 01:55:32;;;;;;;7.47;5.35;;;;;;;19.34;65.31;97816.22;4993597;28;20109;-76
2021/08/14 01:57:58;;;;;;;5.25;4.75;;;;;;;19.35;65.47;97828.38;5010694;28;20037;-76
2021/08/14 02:00:23;;;;;;;7.45;5.15;;;;;;;19.32;65.48;97819.16;4998344;28;20448;-76
2021/08/14 02:02:52;;;;;;;6.25;5.20;;;;;;;19.23;65.42;97819.00;5009403;28;20045;-76
2021/08/14 02:05:17;;;;;;;5.82;4.85;;;;;;;19.26;65.62;97815.81;5010657;28;20037;-76
2021/08/14 02:07:42;;;;;;;8.27;5.72;;;;;;;19.27;65.55;97821.88;4997270;28;20567;-76
2021/08/14 02:10:09;;;;;;;6.18;5.40;;;;;;;19.19;65.79;97815.38;4994289;28;20033;-76
2021/08/14 02:12:34;;;;;;;6.03;5.00;;;;;;;19.20;65.70;97810.88;5021164;28;20033;-76
2021/08/14 02:14:59;;;;;;;7.35;5.13;;;;;;;19.18;65.36;97808.50;4980471;28;20025;-76
2021/08/14 02:17:25;;;;;;;5.22;4.32;;;;;;;19.16;65.47;97808.03;5013044;28;20025;-76
2021/08/14 02:19:50;;;;;;;6.38;5.07;;;;;;;19.12;65.65;97814.16;5006838;28;20530;-76
2021/08/14 02:22:15;;;;;;;5.30;4.80;;;;;;;19.11;65.54;97810.72;5007682;28;20026;-76
2021/08/14 02:24:41;;;;;;;5.93;5.20;;;;;;;19.12;65.56;97814.16;5028609;28;20464;-76
2021/08/14 02:27:06;;;;;;;6.35;5.18;;;;;;;19.07;65.41;97807.88;5007465;28;20529;-76
2021/08/14 02:29:33;;;;;;;7.70;5.22;;;;;;;19.04;65.22;97812.94;4996864;28;20056;-76
2021/08/14 02:31:59;;;;;;;7.88;5.38;;;;;;;18.98;65.95;97820.13;5013078;28;20038;-76
2021/08/14 02:34:24;;;;;;;6.85;5.20;;;;;;;18.93;66.20;97808.84;4996800;28;20029;-76
2021/08/14 02:36:50;;;;;;;7.28;5.18;;;;;;;18.93;66.15;97801.69;4996416;28;20022;-76
2021/08/14 02:39:15;;;;;;;7.05;4.78;;;;;;;18.94;66.28;97805.94;4994237;28;20076;-76
2021/08/14 02:41:40;;;;;;;5.65;4.72;;;;;;;18.89;65.95;97801.47;5010465;28;20033;-76
2021/08/14 02:44:07;;;;;;;5.53;4.90;;;;;;;18.85;66.28;97791.78;5027748;28;20033;-76
2021/08/14 02:46:33;;;;;;;5.43;4.78;;;;;;;18.86;65.95;97796.75;5028289;28;20029;-76
2021/08/14 02:48:58;;;;;;;5.68;4.20;;;;;;;18.86;66.11;97796.00;4975790;28;20032;-76
2021/08/14 02:51:23;;;;;;;6.10;4.70;;;;;;;18.82;66.41;97793.13;5026507;28;20034;-76
2021/08/14 02:53:49;;;;;;;5.60;4.45;;;;;;;18.81;66.34;97794.16;4996185;28;20029;-76
2021/08/14 02:56:14;;;;;;;6.10;4.78;;;;;;;18.84;66.77;97793.63;5030226;28;20084;-76
2021/08/14 02:58:40;;;;;;;4.70;4.10;;;;;;;18.83;66.52;97786.81;4996225;28;20067;-76
2021/08/14 03:01:05;;;;;;;5.05;4.53;;;;;;;18.86;66.21;97788.84;4980544;28;20034;-76
2021/08/14 03:03:33;;;;;;;6.60;4.28;;;;;;;18.78;66.21;97791.31;5005844;28;20048;-76
2021/08/14 03:05:58;;;;;;;5.10;4.47;;;;;;;18.88;66.22;97789.38;5010009;28;20038;-76
2021/08/14 03:08:24;;;;;;;5.68;4.57;;;;;;;18.88;66.29;97789.38;5013213;28;20030;-76
2021/08/14 03:10:49;;;;;;;7.15;5.30;;;;;;;18.87;66.16;97787.78;5022598;28;20044;-76
2021/08/14 03:13:14;;;;;;;5.55;4.63;;;;;;;18.85;66.59;97791.78;5009423;28;20042;-76
2021/08/14 03:15:40;;;;;;;6.15;4.03;;;;;;;18.85;66.13;97781.22;5012429;28;20030;-77
2021/08/14 03:18:06;;;;;;;5.20;4.55;;;;;;;18.86;66.14;97783.56;4998264;28;20044;-76
2021/08/14 03:20:32;;;;;;;6.05;4.47;;;;;;;18.78;66.35;97778.91;5010023;28;20034;-76
2021/08/14 03:22:57;;;;;;;6.32;4.45;;;;;;;18.81;66.28;97785.47;4993211;28;20022;-76
2021/08/14 03:25:23;;;;;;;7.00;5.10;;;;;;;18.80;66.27;97786.53;4995577;28;20120;-76
2021/08/14 03:27:48;;;;;;;5.65;3.63;;;;;;;18.77;66.20;97782.63;5012405;28;20018;-76
2021/08/14 03:30:14;;;;;;;4.90;4.40;;;;;;;18.77;66.06;97787.13;4999727;28;20532;-76
2021/08/14 03:32:40;;;;;;;5.25;4.20;;;;;;;18.78;65.79;97786.84;4993245;28;20369;-76
2021/08/14 03:35:07;;;;;;;5.72;4.10;;;;;;;18.72;66.33;97788.72;4995547;28;20033;-76
2021/08/14 03:37:32;;;;;;;5.18;4.68;;;;;;;18.69;66.39;97788.50;5000255;28;20030;-76
2021/08/14 03:39:58;;;;;;;6.05;4.50;;;;;;;18.73;66.20;97786.91;5010853;28;20032;-76
2021/08/14 03:42:24;;;;;;;5.78;4.55;;;;;;;18.74;66.05;97788.44;4992660;28;20109;-76
2021/08/14 03:44:49;;;;;;;5.85;4.22;;;;;;;18.70;65.78;97788.22;4992359;28;20065;-76
2021/08/14 03:47:14;;;;;;;6.18;4.65;;;;;;;18.67;65.83;97782.72;5012231;28;20022;-76
2021/08/14 03:49:40;;;;;;;6.07;4.57;;;;;;;18.62;66.02;97783.56;5012385;28;20040;-76
2021/08/14 03:52:05;;;;;;;5.50;4.63;;;;;;;18.57;66.14;97788.13;5008836;28;20065;-76
2021/08/14 03:54:31;;;;;;;6.20;4.70;;;;;;;18.55;66.44;97779.72;4995686;28;20029;-76
2021/08/14 03:56:56;;;;;;;7.07;4.78;;;;;;;18.51;66.57;97782.91;5009154;28;20136;-76
2021/08/14 03:59:22;;;;;;;5.28;4.50;;;;;;;18.47;66.56;97778.47;5026086;28;20053;-76
2021/08/14 04:01:47;;;;;;;5.13;4.30;;;;;;;18.48;66.68;97782.69;5003241;28;20113;-76
2021/08/14 04:04:13;;;;;;;5.63;4.47;;;;;;;18.47;66.68;97779.28;5025074;28;20100;-76
2021/08/14 04:06:38;;;;;;;6.55;4.38;;;;;;;18.43;66.78;97780.09;5012108;28;20032;-76
2021/08/14 04:09:04;;;;;;;6.20;4.50;;;;;;;18.39;66.96;97779.88;4995485;28;20120;-76
2021/08/14 04:11:29;;;;;;;4.85;3.90;;;;;;;18.40;67.09;97776.16;4979410;28;20472;-76
2021/08/14 04:13:54;;;;;;;4.30;3.90;;;;;;;18.36;66.86;97774.38;4995356;28;20029;-76
2021/08/14 04:16:20;;;;;;;4.57;3.95;;;;;;;18.34;66.92;97783.34;4997329;28;20029;-76
2021/08/14 04:18:45;;;;;;;5.00;4.15;;;;;;;18.33;67.15;97786.25;5015619;28;20086;-76
2021/08/14 04:21:11;;;;;;;4.40;3.80;;;;;;;18.34;66.84;97787.84;5008193;28;20052;-76
2021/08/14 04:23:36;;;;;;;6.15;4.20;;;;;;;18.32;66.81;97788.13;4982564;28;20425;-76
2021/08/14 04:26:02;;;;;;;7.57;4.35;;;;;;;18.34;66.55;97793.13;5021060;28;20038;-76
2021/08/14 04:28:27;;;;;;;4.82;4.05;;;;;;;18.31;66.70;97783.13;5024202;28;20048;-76
2021/08/14 04:30:52;;;;;;;5.60;3.58;;;;;;;18.35;66.61;97789.41;5015197;28;20039;-76
2021/08/14 04:33:19;;;;;;;6.55;4.07;;;;;;;18.36;66.53;97798.88;4988277;28;20409;-76
2021/08/14 04:35:45;;;;;;;4.18;3.58;;;;;;;18.37;66.52;97783.84;5013549;28;20038;-76
2021/08/14 04:38:10;;;;;;;5.80;4.15;;;;;;;18.42;66.28;97786.44;4979966;28;20025;-76
2021/08/14 04:40:36;;;;;;;5.55;4.00;;;;;;;18.37;66.31;97774.09;5004403;28;20492;-76
2021/08/14 04:43:01;;;;;;;5.78;3.55;;;;;;;18.38;66.57;97775.66;5012447;28;20030;-77
2021/08/14 04:45:26;;;;;;;5.30;4.32;;;;;;;18.42;66.51;97781.16;5012224;28;20469;-76
2021/08/14 04:47:52;;;;;;;6.38;4.10;;;;;;;18.48;66.34;97774.78;4979709;28;20053;-76
2021/08/14 04:50:18;;;;;;;5.85;4.20;;;;;;;18.53;65.91;97772.06;5014289;28;20381;-76
2021/08/14 04:52:47;;;;;;;5.57;4.00;;;;;;;18.55;66.05;97774.44;5032772;28;20364;-76
2021/08/14 04:55:18;;;;;;;4.88;4.00;;;;;;;18.51;66.34;97779.50;5028084;28;20065;-76
2021/08/14 04:57:44;;;;;;;4.57;3.83;;;;;;;18.59;66.24;97784.13;4998724;28;20025;-76
2021/08/14 05:00:10;;;;;;;5.07;3.85;;;;;;;18.61;66.68;97779.38;5014249;28;20045;-76
2021/08/14 05:02:35;;;;;;;4.72;3.50;;;;;;;18.63;66.83;97779.09;5028144;28;20095;-76
2021/08/14 05:05:00;;;;;;;6.00;4.03;;;;;;;18.68;66.69;97784.31;5018433;28;20140;-76
2021/08/14 05:07:26;;;;;;;5.35;3.70;;;;;;;18.69;66.75;97775.31;5012060;28;20034;-76
2021/08/14 05:09:57;;;;;;;5.25;3.88;;;;;;;18.67;66.78;97780.09;5002484;28;20034;-76
2021/08/14 05:12:22;;;;;;;5.22;3.97;;;;;;;18.78;66.44;97770.19;4994363;28;20030;-76
2021/08/14 05:14:47;;;;;;;7.72;4.05;;;;;;;18.90;65.88;97781.97;4995518;28;20431;-76
2021/08/14 05:17:13;;;;;;;7.50;4.00;;;;;;;18.91;65.79;97777.47;4994016;28;20029;-76
2021/08/14 05:19:38;;;;;;;4.20;3.67;;;;;;;18.94;65.36;97786.66;4968236;28;20030;-76
2021/08/14 05:22:03;;;;;;;5.32;4.07;;;;;;;18.95;65.70;97782.94;5024654;28;20105;-76
2021/08/14 05:24:29;;;;;;;4.75;3.58;;;;;;;19.01;65.86;97787.88;5006737;28;20455;-76
2021/08/14 05:26:55;;;;;;;5.15;3.42;;;;;;;19.07;66.02;97791.22;5009966;28;20448;-76
2021/08/14 05:29:20;;;;;;;6.10;4.30;;;;;;;19.11;65.70;97784.34;4998340;28;20621;-76
2021/08/14 05:31:46;;;;;;;3.65;3.35;;;;;;;19.15;65.42;97798.53;4993713;28;20047;-76
2021/08/14 05:34:11;;;;;;;4.88;3.42;;;;;;;19.21;65.17;97792.13;5009648;28;20030;-76
2021/08/14 05:36:36;;;;;;;4.18;3.50;;;;;;;19.26;65.00;97789.41;5009673;28;20029;-76
2021/08/14 05:39:02;;;;;;;5.72;3.90;;;;;;;19.35;65.00;97791.41;5025880;28;20038;-76
2021/08/14 05:41:27;;;;;;;4.40;3.55;;;;;;;19.37;64.78;97784.75;5012163;28;20041;-76
2021/08/14 05:43:52;;;;;;;4.20;3.47;;;;;;;19.40;64.70;97778.91;5021539;28;20112;-76
2021/08/14 05:46:18;;;;;;;4.28;3.50;;;;;;;19.44;64.88;97789.69;5013794;28;20026;-76
2021/08/14 05:48:43;;;;;;;4.18;3.47;;;;;;;19.51;64.83;97789.31;5013882;28;20057;-76
2021/08/14 05:51:12;;;;;;;4.47;3.42;;;;;;;19.51;64.87;97790.09;4984543;28;20762;-77
2021/08/14 05:53:38;;;;;;;6.38;3.63;;;;;;;19.66;64.61;97786.44;5005993;28;20128;-77
2021/08/14 05:56:04;;;;;;;4.15;2.97;;;;;;;19.72;64.85;97784.50;5023148;28;20660;-76
2021/08/14 05:58:29;;;;;;;3.67;3.35;;;;;;;19.79;64.82;97784.94;4993560;28;20492;-76
2021/08/14 06:00:55;;;;;;;6.38;3.08;;;;;;;19.87;64.76;97784.28;5008005;28;20068;-76
2021/08/14 06:03:20;;;;;;;4.75;3.08;;;;;;;19.95;64.43;97793.41;5011523;28;20038;-76
2021/08/14 06:05:45;;;;;;;4.07;3.40;;;;;;;19.99;64.66;97786.47;4987871;28;20034;-76
2021/08/14 06:08:12;;;;;;;4.25;2.95;;;;;;;20.04;64.19;97777.66;5013511;28;20026;-76
2021/08/14 06:10:38;;;;;;;3.40;3.10;;;;;;;20.19;64.29;97793.25;5005139;28;20025;-77
2021/08/14 06:13:03;;;;;;;3.63;3.03;;;;;;;20.27;64.06;97784.66;5012077;28;20120;-77
2021/08/14 06:15:29;;;;;;;7.68;3.78;;;;;;;20.38;64.10;97783.38;5011927;28;20033;-76
2021/08/14 06:17:54;;;;;;;3.92;2.92;;;;;;;20.55;63.94;97782.03;5005822;28;20536;-76
2021/08/14 06:20:20;;;;;;;3.63;3.22;;;;;;;20.66;63.90;97775.47;5023549;28;20034;-76
2021/08/14 06:22:45;;;;;;;3.53;2.78;;;;;;;20.80;63.78;97774.69;4975934;28;20037;-76
2021/08/14 06:25:12;;;;;;;4.35;3.08;;;;;;;20.92;63.83;97774.94;5005042;28;20038;-76
2021/08/14 06:27:37;;;;;;;4.20;3.80;;;;;;;21.09;63.50;97777.75;4990117;28;20643;-76
2021/08/14 06:30:05;;;;;;;4.53;3.33;;;;;;;21.29;62.96;97783.69;5000299;28;20033;-76
2021/08/14 06:32:32;;;;;;;4.22;2.97;;;;;;;21.47;62.35;97785.44;5003445;28;20072;-76
2021/08/14 06:34:57;;;;;;;4.60;3.20;;;;;;;21.69;61.86;97791.81;4992161;28;20033;-76
2021/08/14 06:37:22;;;;;;;4.05;3.65;;;;;;;21.92;61.37;97778.53;5018581;28;20392;-76
2021/08/14 06:39:48;;;;;;;3.63;3.03;;;;;;;22.13;60.66;97787.56;5026446;28;20125;-77
2021/08/14 06:42:13;;;;;;;3.63;3.13;;;;;;;22.40;59.95;97788.50;5019651;28;20065;-76
2021/08/14 06:44:38;;;;;;;3.33;3.03;;;;;;;22.70;59.46;97791.38;5016962;28;20142;-77
2021/08/14 06:47:04;;;;;;;3.42;2.70;;;;;;;22.99;58.88;97782.84;5018347;28;20033;-76
2021/08/14 06:49:29;;;;;;;3.72;3.10;;;;;;;23.30;57.96;97782.75;5020316;28;20060;-77
2021/08/14 06:51:55;;;;;;;3.03;2.72;;;;;;;23.62;57.35;97785.25;4973328;28;20033;-76
2021/08/14 06:54:20;;;;;;;4.28;3.00;;;;;;;23.92;56.43;97786.13;4984075;28;20152;-77
2021/08/14 06:56:47;;;;;;;4.10;3.33;;;;;;;24.18;55.83;97796.72;5004002;28;20056;-77
2021/08/14 06:59:12;;;;;;;5.00;3.58;;;;;;;24.44;55.14;97793.97;5020087;28;20084;-77
2021/08/14 07:01:38;;;;;;;3.05;2.75;;;;;;;24.67;54.33;97797.16;5000963;28;20381;-76
2021/08/14 07:04:03;;;;;;;3.85;2.80;;;;;;;24.91;53.28;97795.00;5017558;28;20040;-76
2021/08/14 07:06:29;;;;;;;3.72;2.70;;;;;;;25.13;52.31;97800.00;5002714;28;20059;-76
2021/08/14 07:08:54;;;;;;;4.45;2.80;;;;;;;25.40;52.35;97797.97;5004788;28;20030;-76
2021/08/14 07:11:20;;;;;;;3.10;2.90;;;;;;;25.63;51.86;97795.72;4988616;28;20029;-76
2021/08/14 07:13:46;;;;;;;3.83;3.08;;;;;;;25.80;51.72;97802.78;4990234;28;20060;-76
2021/08/14 07:16:12;;;;;;;4.68;3.80;;;;;;;25.84;53.82;97803.69;5017804;28;20239;-76
2021/08/14 07:18:37;;;;;;;3.92;3.55;;;;;;;26.21;52.54;97805.69;5022188;28;20369;-76
2021/08/14 07:21:03;;;;;;;4.30;3.05;;;;;;;26.51;51.09;97796.38;5024640;28;20034;-76
2021/08/14 07:23:28;;;;;;;3.70;3.30;;;;;;;26.78;49.84;97798.72;5007656;28;20115;-76
2021/08/14 07:25:56;;;;;;;3.38;3.08;;;;;;;26.84;47.91;97792.81;5018878;28;20029;-76
2021/08/14 07:28:22;;;;;;;3.95;2.90;;;;;;;27.01;46.58;97796.34;5003277;28;20037;-76
2021/08/14 07:30:48;;;;;;;4.70;3.10;;;;;;;27.25;45.95;97798.19;5003838;28;20499;-76
2021/08/14 07:33:14;;;;;;;3.17;2.97;;;;;;;27.42;45.35;97802.50;4970971;28;20574;-76
2021/08/14 07:35:39;;;;;;;3.58;3.03;;;;;;;27.62;45.07;97800.75;5010701;28;20033;-76
2021/08/14 07:38:05;;;;;;;4.15;3.10;;;;;;;27.72;44.85;97797.56;4971471;28;20067;-76
2021/08/14 07:40:30;;;;;;;3.70;3.40;;;;;;;27.84;45.16;97805.53;4977270;28;20389;-76
2021/08/14 07:42:56;;;;;;;3.42;3.13;;;;;;;28.00;45.46;97804.81;4984890;28;20114;-76
2021/08/14 07:45:22;;;;;;;3.40;3.10;;;;;;;28.19;44.73;97802.25;5008662;28;20026;-76
2021/08/14 07:47:48;;;;;;;3.30;2.80;;;;;;;28.31;44.85;97805.94;4999609;28;20068;-76
2021/08/14 07:50:27;;;;;;;5.07;3.22;;;;;;;28.55;44.42;97802.34;5024589;28;20104;-76
2021/08/14 07:52:54;;;;;;;3.80;3.50;;;;;;;28.85;43.34;97794.59;5005353;28;20061;-75
2021/08/14 07:55:20;;;;;;;3.88;3.58;;;;;;;28.88;43.32;97798.47;5000113;28;20415;-76
2021/08/14 07:57:45;;;;;;;3.70;3.20;;;;;;;29.24;41.99;97800.03;4986756;28;20042;-76
2021/08/14 08:00:13;;;;;;;5.50;3.92;;;;;;;29.03;41.90;97800.34;5023733;28;20068;-76
2021/08/14 08:02:39;;;;;;;4.65;3.97;;;;;;;29.39;42.47;97800.31;5031839;28;20033;-76
2021/08/14 08:05:06;;;;;;;4.65;4.25;;;;;;;29.46;41.39;97801.22;5031692;28;20033;-76
2021/08/14 08:07:31;;;;;;;3.60;3.30;;;;;;;29.77;40.63;97799.53;5000161;28;20120;-75
2021/08/14 08:09:57;;;;;;;5.13;3.65;;;;;;;29.94;40.61;97792.94;5020515;28;20437;-76
2021/08/14 08:12:23;;;;;;;4.38;3.90;;;;;;;30.07;40.53;97785.47;4996482;28;20060;-75
2021/08/14 08:14:48;;;;;;;4.80;4.40;;;;;;;30.13;40.50;97788.66;5004472;28;20041;-76
2021/08/14 08:17:13;;;;;;;4.05;3.65;;;;;;;30.36;40.79;97789.41;4983021;28;20123;-76
2021/08/14 08:19:39;;;;;;;4.47;4.13;;;;;;;30.54;40.28;97778.94;5015049;28;20030;-76
2021/08/14 08:22:05;;;;;;;4.28;3.88;;;;;;;30.57;40.15;97788.19;5028294;28;20030;-76
2021/08/14 08:24:30;;;;;;;4.63;4.25;;;;;;;30.67;39.72;97790.25;4995463;28;20026;-76
2021/08/14 08:26:56;;;;;;;5.13;4.63;;;;;;;30.86;39.22;97785.91;5012868;28;20142;-76
2021/08/14 08:29:22;;;;;;;4.80;4.40;;;;;;;30.92;39.00;97790.59;5004970;28;20657;-76
2021/08/14 08:31:47;;;;;;;4.40;4.00;;;;;;;31.02;38.26;97794.59;5002424;28;20034;-76
2021/08/14 08:34:13;;;;;;;4.28;3.88;;;;;;;31.02;38.33;97786.53;4998884;28;20029;-76
2021/08/14 08:36:38;;;;;;;4.47;4.07;;;;;;;31.21;38.05;97784.84;4998724;28;20033;-76
2021/08/14 08:39:03;;;;;;;4.22;3.92;;;;;;;31.25;39.28;97789.09;4983505;28;20140;-76
2021/08/14 08:41:29;;;;;;;4.78;4.40;;;;;;;31.17;38.86;97788.25;5013577;28;20033;-75
2021/08/14 08:43:55;;;;;;;5.38;4.20;;;;;;;31.37;38.62;97780.78;5024536;28;20041;-76
2021/08/14 08:46:20;;;;;;;4.30;3.90;;;;;;;31.48;38.09;97780.94;4999073;28;20033;-76
2021/08/14 08:48:52;;;;;;;4.95;4.13;;;;;;;31.60;37.25;97777.22;5011953;28;20652;-76
2021/08/14 08:51:24;;;;;;;5.80;4.60;;;;;;;31.70;38.25;97779.25;5013881;28;20040;-76
2021/08/14 08:53:50;;;;;;;5.68;4.85;;;;;;;31.99;36.40;97773.34;5026791;28;20040;-76
2021/08/14 08:56:15;;;;;;;5.32;4.80;;;;;;;32.28;36.42;97769.75;5022504;28;20026;-76
2021/08/14 08:58:41;;;;;;;4.80;4.40;;;;;;;32.27;35.52;97770.91;4997197;28;20052;-76
2021/08/14 09:01:06;;;;;;;4.88;4.40;;;;;;;32.23;36.05;97767.41;5011851;28;20045;-75
2021/08/14 09:03:31;;;;;;;4.90;4.35;;;;;;;32.14;35.42;97764.28;5019347;28;20099;-76
2021/08/14 09:05:57;;;;;;;4.95;4.45;;;;;;;32.26;35.37;97766.66;5011327;28;20034;-76
2021/08/14 09:08:23;;;;;;;5.78;4.72;;;;;;;32.53;34.03;97774.56;4998379;28;20079;-76
2021/08/14 09:10:51;;;;;;;4.55;4.18;;;;;;;32.35;34.48;97770.97;5009244;28;20049;-75
2021/08/14 09:13:19;;;;;;;5.53;4.32;;;;;;;32.41;35.56;97770.25;5011112;28;20037;-76
2021/08/14 09:15:45;;;;;;;5.30;4.80;;;;;;;32.74;37.13;97763.16;4995024;28;20447;-76
2021/08/14 09:18:18;;;;;;;4.57;4.18;;;;;;;32.75;33.61;97764.72;4997227;28;20029;-76
2021/08/14 09:20:52;;;;;;;4.72;4.25;;;;;;;32.83;32.28;97765.50;4997928;28;20091;-76
2021/08/14 09:23:19;;;;;;;4.72;4.38;;;;;;;32.91;32.77;97760.94;4994401;28;20036;-76
2021/08/14 09:25:50;;;;;;;4.40;4.00;;;;;;;33.10;33.55;97762.53;4996108;28;20033;-76
2021/08/14 09:28:17;;;;;;;5.47;4.53;;;;;;;32.70;33.47;97761.56;4987575;28;20380;-76
2021/08/14 09:30:48;;;;;;;4.53;4.15;;;;;;;33.05;31.31;97760.97;5012436;28;20392;-75
2021/08/14 09:33:18;;;;;;;5.00;4.22;;;;;;;33.15;32.95;97762.22;5003347;28;20029;-76
2021/08/14 09:35:48;;;;;;;4.70;4.30;;;;;;;33.45;30.46;97755.72;4988388;28;20032;-75
2021/08/14 09:38:15;;;;;;;4.70;3.90;;;;;;;33.51;30.19;97754.97;4995057;28;20036;-75
2021/08/14 09:40:45;;;;;;;5.00;4.50;;;;;;;33.60;30.16;97762.69;5016810;28;20486;-75
2021/08/14 09:43:15;;;;;;;4.70;4.28;;;;;;;33.73;31.65;97755.81;5013530;28;20041;-75
2021/08/14 09:45:56;;;;;;;4.72;4.30;;;;;;;33.66;32.47;97757.72;5026185;28;20119;-75
2021/08/14 09:48:25;;;;;;;5.38;4.30;;;;;;;33.50;33.10;97752.66;4995043;28;20091;-75
2021/08/14 09:50:52;;;;;;;4.82;4.10;;;;;;;33.51;33.03;97754.97;5010803;28;20033;-76
2021/08/14 09:53:28;;;;;;;11.27;4.47;;;;;;;33.69;32.62;97757.75;4994447;28;20480;-75
2021/08/14 09:56:12;;;;;;;4.88;4.38;;;;;;;33.97;30.85;97748.13;5002632;28;20033;-75
2021/08/14 09:58:38;;;;;;;5.32;4.75;;;;;;;34.21;30.21;97745.81;5009037;28;20025;-75
2021/08/14 10:01:05;;;;;;;4.75;4.35;;;;;;;33.58;33.33;97752.28;4994029;28;20088;-75
2021/08/14 10:03:32;;;;;;;4.63;4.22;;;;;;;33.85;30.94;97746.56;4994608;28;20037;-75
2021/08/14 10:05:59;;;;;;;4.47;4.07;;;;;;;34.01;29.51;97742.72;5010209;28;20440;-75
2021/08/14 10:08:26;;;;;;;4.60;4.28;;;;;;;33.91;30.09;97742.34;5013331;28;20030;-75
2021/08/14 10:10:51;;;;;;;4.35;3.95;;;;;;;33.96;29.99;97733.06;4996714;28;20091;-75
2021/08/14 10:13:18;;;;;;;4.43;4.03;;;;;;;34.03;29.60;97734.97;4993422;28;20037;-75
2021/08/14 10:15:44;;;;;;;24.42;5.47;;;;;;;33.94;31.05;97732.66;4997186;28;20036;-75
2021/08/14 10:18:11;;;;;;;4.28;3.83;;;;;;;34.11;30.76;97725.72;5003333;28;20077;-75
2021/08/14 10:20:36;;;;;;;4.05;3.75;;;;;;;34.31;29.40;97731.53;5019525;28;20059;-76
2021/08/14 10:23:07;;;;;;;4.18;3.42;;;;;;;34.35;29.17;97731.50;5012554;28;20040;-75
2021/08/14 10:25:36;;;;;;;4.50;4.03;;;;;;;34.19;31.77;97721.06;4975199;28;20041;-75
2021/08/14 10:28:04;;;;;;;4.80;4.28;;;;;;;34.36;30.74;97724.94;5028087;28;20021;-75
2021/08/14 10:30:49;;;;;;;4.28;3.58;;;;;;;34.65;28.23;97718.31;5011550;28;20383;-75
2021/08/14 10:33:35;;;;;;;;;;;;;;;34.61;29.73;97724.88;4985541;28;20037;-75
2021/08/14 10:36:16;;;;;;;3.83;3.53;;;;;;;34.86;27.32;97725.59;5000500;28;19925;-76
2021/08/14 10:38:43;;;;;;;5.63;3.70;;;;;;;34.54;30.11;97714.09;4992057;28;20038;-76
2021/08/14 10:41:09;;;;;;;4.90;4.45;;;;;;;34.95;29.42;97710.88;4994626;28;20048;-76
2021/08/14 10:43:59;;;;;;;4.32;3.92;;;;;;;35.03;29.14;97712.38;5008270;28;20029;-76
2021/08/14 10:46:47;;;;;;;4.00;3.58;;;;;;;35.41;27.90;97709.88;4992020;28;20034;-76
2021/08/14 10:49:19;;;;;;;3.90;3.50;;;;;;;35.06;30.50;97711.56;5022842;28;20029;-76
2021/08/14 10:51:48;;;;;;;4.43;4.13;;;;;;;35.21;28.00;97704.94;5011065;28;20033;-76
2021/08/14 10:54:33;;;;;;;4.95;4.47;;;;;;;35.36;27.75;97702.16;5010776;28;20351;-76
2021/08/14 10:57:08;;;;;;;4.35;3.95;;;;;;;35.17;27.96;97698.00;4968384;28;20057;-75
2021/08/14 10:59:39;;;;;;;3.70;3.40;;;;;;;35.31;24.21;97687.09;4994691;28;20084;-76
2021/08/14 11:02:12;;;;;;;4.68;4.22;;;;;;;35.14;26.83;97691.44;4979707;28;20025;-75
2021/08/14 11:04:41;;;;;;;4.40;4.10;;;;;;;35.34;26.52;97685.56;5001503;28;20025;-75
2021/08/14 11:07:19;;;;;;;3.72;3.42;;;;;;;35.51;25.30;97687.34;5016238;28;20105;-76
2021/08/14 11:09:53;;;;;;;4.97;4.45;;;;;;;35.38;25.04;97684.34;5000895;28;20057;-76
2021/08/14 11:12:38;;;;;;;5.55;4.47;;;;;;;35.53;25.09;97682.31;4996126;28;20383;-76
2021/08/14 11:15:12;;;;;;;;;;;;;;;35.52;26.67;97672.63;5012823;28;20068;-76
2021/08/14 11:17:40;;;;;;;4.60;4.18;;;;;;;35.50;28.01;97677.69;5030747;28;19925;-76
2021/08/14 11:20:24;;;;;;;5.00;4.40;;;;;;;35.64;27.57;97676.81;4994386;28;20034;-76
2021/08/14 11:22:54;;;;;;;5.45;4.15;;;;;;;35.60;27.83;97676.84;4994659;28;20103;-76
2021/08/14 11:25:27;;;;;;;4.30;3.90;;;;;;;35.71;26.87;97662.44;5009822;28;20021;-76
2021/08/14 11:28:04;;;;;;;4.18;3.88;;;;;;;35.34;27.27;97667.34;4981195;28;20026;-75
2021/08/14 11:30:35;;;;;;;4.22;3.83;;;;;;;34.57;27.46;97659.97;5008996;28;20033;-76
2021/08/14 11:33:04;;;;;;;4.82;4.40;;;;;;;34.18;29.49;97660.06;5011928;28;20029;-75